Time;durP1;ratioP1;P1;durP2;ratioP2;P2;SDS_P1;SDS_P2;PMS_P1;PMS_P2;Temp;Humidity;BMP_temperature;BMP_pressure;BME280_temperature;BME280_humidity;BME280_pressure;Samples;Min_cycle;Max_cycle;Signal;HPM_P1;HPM_P2
2022/05/21 00:00:11;;;;;;;8.55;5.55;;;;;;;14.24;100.00;93617.13;2098253;28;20035;-83
2022/05/21 00:01:12;;;;;;;7.55;5.97;;;;;;;14.18;100.00;93620.75;2106431;28;20026;-83
2022/05/21 00:02:13;;;;;;;7.13;5.75;;;;;;;14.13;100.00;93610.53;2098221;28;20435;-83
2022/05/21 00:03:15;;;;;;;8.55;5.80;;;;;;;14.24;100.00;93619.81;2098076;28;20809;-82
2022/05/21 00:04:16;;;;;;;6.93;5.80;;;;;;;14.22;100.00;93621.41;2090045;28;20025;-83
2022/05/21 00:05:20;;;;;;;6.63;5.90;;;;;;;14.14;100.00;93622.81;2090036;28;20027;-83
2022/05/21 00:06:21;;;;;;;6.20;5.60;;;;;;;14.05;100.00;93618.06;2088587;28;20017;-82
2022/05/21 00:07:22;;;;;;;7.18;5.53;;;;;;;14.06;100.00;93614.94;2090116;28;20520;-83
2022/05/21 00:08:23;;;;;;;5.90;5.00;;;;;;;14.22;100.00;93613.34;2090136;28;20028;-83
2022/05/21 00:09:42;;;;;;;5.72;5.15;;;;;;;14.03;100.00;93605.03;2095068;28;20408;-82
2022/05/21 00:10:43;;;;;;;5.65;5.15;;;;;;;13.91;100.00;93611.09;2100457;28;20062;-83
2022/05/21 00:11:45;;;;;;;6.80;5.43;;;;;;;13.90;100.00;93611.53;2096781;28;20473;-82
2022/05/21 00:12:46;;;;;;;6.18;5.57;;;;;;;13.77;100.00;93612.22;2091380;28;20028;-83
2022/05/21 00:13:48;;;;;;;6.82;5.25;;;;;;;13.97;100.00;93605.97;2098026;28;20028;-82
2022/05/21 00:14:52;;;;;;;5.90;5.00;;;;;;;13.85;100.00;93612.81;2090292;28;20028;-83
2022/05/21 00:15:53;;;;;;;6.07;5.47;;;;;;;13.83;100.00;93615.19;2090415;28;20051;-83
2022/05/21 00:16:54;;;;;;;5.90;5.35;;;;;;;13.72;100.00;93614.69;2087145;28;20025;-83
2022/05/21 00:17:54;;;;;;;8.48;5.03;;;;;;;13.79;100.00;93614.50;2092855;28;20032;-83
2022/05/21 00:18:56;;;;;;;7.35;4.93;;;;;;;13.77;100.00;93611.47;2098047;28;20032;-84
2022/05/21 00:19:57;;;;;;;8.00;5.22;;;;;;;13.81;100.00;93618.28;2081733;28;20033;-84
2022/05/21 00:20:58;;;;;;;5.95;4.75;;;;;;;13.81;100.00;93622.88;2101369;28;20397;-83
2022/05/21 00:21:59;;;;;;;8.68;5.25;;;;;;;13.74;100.00;93615.00;2111372;28;20484;-83
2022/05/21 00:23:09;;;;;;;5.63;5.03;;;;;;;13.75;100.00;93619.97;2093354;28;20085;-85
2022/05/21 00:24:10;;;;;;;6.72;4.97;;;;;;;13.89;100.00;93624.22;2099311;28;20019;-83
2022/05/21 00:25:12;;;;;;;7.45;5.75;;;;;;;13.82;100.00;93621.69;2098054;28;20081;-83
2022/05/21 00:26:16;;;;;;;6.50;5.00;;;;;;;13.84;100.00;93616.69;2097927;28;20020;-82
2022/05/21 00:27:17;;;;;;;6.32;5.53;;;;;;;13.78;100.00;93634.47;2090574;28;20582;-84
2022/05/21 00:28:18;;;;;;;8.68;5.88;;;;;;;13.64;100.00;93621.41;2089914;28;20083;-84
2022/05/21 00:29:20;;;;;;;6.13;4.85;;;;;;;13.69;100.00;93623.56;2081586;28;20029;-83
2022/05/21 00:30:35;;;;;;;6.90;5.22;;;;;;;13.72;100.00;93625.44;2090193;28;20017;-83
2022/05/21 00:31:37;;;;;;;8.70;4.85;;;;;;;13.73;100.00;93616.94;2095627;28;20024;-84
2022/05/21 00:32:39;;;;;;;8.70;4.95;;;;;;;13.57;100.00;93628.47;2082023;28;20528;-84
2022/05/21 00:33:42;;;;;;;6.25;5.15;;;;;;;13.75;100.00;93624.59;2098125;28;20029;-84
2022/05/21 00:34:44;;;;;;;9.48;5.15;;;;;;;13.69;100.00;93623.56;2099178;28;20024;-83
2022/05/21 00:35:48;;;;;;;7.00;4.80;;;;;;;13.75;100.00;93619.22;2088237;28;20033;-83
2022/05/21 00:36:50;;;;;;;6.47;4.88;;;;;;;13.96;100.00;93613.28;2092213;28;20025;-83
2022/05/21 00:37:51;;;;;;;7.88;4.82;;;;;;;13.83;100.00;93607.88;2098258;28;20055;-83
2022/05/21 00:38:52;;;;;;;4.93;4.50;;;;;;;13.88;100.00;93613.91;2106249;28;20079;-83
2022/05/21 00:39:53;;;;;;;7.57;4.70;;;;;;;13.84;100.00;93612.06;2105887;28;20032;-83
2022/05/21 00:40:55;;;;;;;6.03;4.80;;;;;;;13.90;100.00;93608.84;2094998;28;20029;-83
2022/05/21 00:42:03;;;;;;;6.40;5.05;;;;;;;13.81;100.00;93612.13;2092877;28;20042;-83
2022/05/21 00:43:06;;;;;;;5.38;4.95;;;;;;;13.74;100.00;93615.00;2103069;28;20024;-83
2022/05/21 00:44:07;;;;;;;10.55;5.35;;;;;;;13.75;100.00;93616.53;2102748;28;20019;-83
2022/05/21 00:45:10;;;;;;;8.98;5.07;;;;;;;13.75;100.00;93619.22;2097356;28;20051;-84
2022/05/21 00:46:16;;;;;;;9.05;5.28;;;;;;;13.85;100.00;93605.50;2089863;28;20024;-84
2022/05/21 00:47:18;;;;;;;6.38;5.10;;;;;;;13.71;100.00;93613.19;2090225;28;20024;-83
2022/05/21 00:48:19;;;;;;;6.88;5.05;;;;;;;13.62;100.00;93619.16;2089933;28;20021;-83
2022/05/21 00:49:22;;;;;;;4.93;4.38;;;;;;;13.66;100.00;93619.81;2089609;28;20024;-83
2022/05/21 00:50:27;;;;;;;5.45;4.90;;;;;;;13.79;100.00;93614.50;2104969;28;20460;-83
2022/05/21 00:51:50;;;;;;;6.15;4.85;;;;;;;13.94;100.00;93618.31;2098540;28;20032;-83
2022/05/21 00:52:53;;;;;;;8.98;4.35;;;;;;;13.87;100.00;93610.44;2102984;28;20065;-83
2022/05/21 00:53:56;;;;;;;6.57;4.93;;;;;;;13.72;100.00;93609.31;2111216;28;20032;-84
2022/05/21 00:55:02;;;;;;;6.72;4.60;;;;;;;13.73;100.00;93611.56;2109481;28;20020;-83
2022/05/21 00:56:05;;;;;;;5.28;4.78;;;;;;;13.60;100.00;93608.81;2101918;28;20031;-83
2022/05/21 00:57:37;;;;;;;8.20;4.60;;;;;;;13.70;100.00;93609.00;2094362;28;20469;-83
2022/05/21 01:00:07;;;;;;;5.55;4.80;;;;;;;13.73;100.00;93610.81;2098751;28;20080;-83
2022/05/21 01:01:10;;;;;;;6.03;4.60;;;;;;;13.66;100.00;93606.38;2098620;28;20020;-83
2022/05/21 01:02:12;;;;;;;7.47;4.38;;;;;;;13.71;100.00;93611.25;2098278;28;20023;-83
2022/05/21 01:03:15;;;;;;;6.90;4.97;;;;;;;13.70;100.00;93612.44;2100847;28;20446;-83
2022/05/21 01:04:16;;;;;;;8.18;4.53;;;;;;;13.67;100.00;93609.84;2100989;28;20133;-83
2022/05/21 01:05:21;;;;;;;5.82;4.55;;;;;;;13.61;100.00;93617.66;2097702;28;20476;-83
2022/05/21 01:06:22;;;;;;;8.25;4.13;;;;;;;13.67;100.00;93613.25;2088715;28;20053;-83
2022/05/21 01:07:25;;;;;;;5.30;4.80;;;;;;;13.52;100.00;93620.16;2097731;28;20499;-83
2022/05/21 01:08:26;;;;;;;7.00;4.90;;;;;;;13.53;100.00;93616.31;2081726;28;20108;-84
2022/05/21 01:09:34;;;;;;;6.97;4.50;;;;;;;13.70;100.00;93617.06;2088525;28;20071;-83
2022/05/21 01:10:40;;;;;;;5.07;4.57;;;;;;;13.46;100.00;93622.59;2091538;28;20422;-83
2022/05/21 01:11:41;;;;;;;4.70;4.20;;;;;;;13.45;100.00;93623.03;2089802;28;20052;-83
2022/05/21 01:12:48;;;;;;;8.05;4.60;;;;;;;13.35;100.00;93620.19;2090735;28;20067;-83
2022/05/21 01:13:51;;;;;;;4.78;4.32;;;;;;;13.39;100.00;93624.69;2104667;28;20512;-83
2022/05/21 01:14:56;;;;;;;6.68;4.32;;;;;;;13.50;100.00;93622.53;2108426;28;20111;-84
2022/05/21 01:15:58;;;;;;;5.28;4.25;;;;;;;13.32;100.00;93631.00;2102665;28;20016;-83
2022/05/21 01:17:01;;;;;;;4.75;4.35;;;;;;;13.42;100.00;93627.31;2085023;28;20025;-83
2022/05/21 01:18:06;;;;;;;6.20;4.43;;;;;;;13.37;100.00;93627.81;2086154;28;20102;-84
2022/05/21 01:19:09;;;;;;;5.97;4.88;;;;;;;13.37;100.00;93627.81;2086767;28;20079;-83
2022/05/21 01:20:15;;;;;;;6.30;4.25;;;;;;;13.38;100.00;93623.19;2098192;28;20044;-83
2022/05/21 01:21:16;;;;;;;7.28;4.70;;;;;;;13.36;100.00;93629.00;2098260;28;20389;-83
2022/05/21 01:22:17;;;;;;;5.15;4.38;;;;;;;13.39;100.00;93636.22;2083392;28;20111;-83
2022/05/21 01:23:19;;;;;;;6.68;4.50;;;;;;;13.40;100.00;93632.34;2095492;28;20074;-83
2022/05/21 01:24:20;;;;;;;6.20;4.18;;;;;;;13.44;100.00;93637.66;2106111;28;20027;-84
2022/05/21 01:25:25;;;;;;;19.48;4.90;;;;;;;13.45;100.00;93637.22;2097496;28;20055;-83
2022/05/21 01:26:27;;;;;;;4.82;4.40;;;;;;;13.53;100.00;93643.19;2090274;28;20020;-83
2022/05/21 01:27:28;;;;;;;8.05;4.03;;;;;;;13.44;100.00;93633.03;2089496;28;20033;-83
2022/05/21 01:28:33;;;;;;;6.82;4.60;;;;;;;13.42;100.00;93638.03;2097645;28;20056;-83
2022/05/21 01:29:35;;;;;;;5.65;4.35;;;;;;;13.42;100.00;93645.34;2106296;28;20028;-83
2022/05/21 01:30:51;;;;;;;6.75;4.70;;;;;;;13.45;100.00;93639.91;2097825;28;20029;-83
2022/05/21 01:31:53;;;;;;;4.93;4.47;;;;;;;13.50;100.00;93641.31;2102242;28;20059;-83
2022/05/21 01:32:56;;;;;;;5.53;4.30;;;;;;;13.40;100.00;93635.03;2094852;28;20355;-83
2022/05/21 01:33:57;;;;;;;7.13;4.60;;;;;;;13.34;100.00;93634.81;2092682;28;20020;-83
2022/05/21 01:35:06;;;;;;;5.15;4.68;;;;;;;13.42;100.00;93635.38;2098169;28;20419;-84
2022/05/21 01:36:08;;;;;;;8.98;5.35;;;;;;;13.33;100.00;93624.47;2090925;28;20048;-83
2022/05/21 01:37:11;;;;;;;6.72;4.78;;;;;;;13.41;100.00;93630.44;2089385;28;20024;-83
2022/05/21 01:38:14;;;;;;;5.47;4.78;;;;;;;13.33;100.00;93629.84;2086250;28;20123;-83
2022/05/21 01:39:15;;;;;;;5.57;5.07;;;;;;;13.39;100.00;93630.06;2086944;28;20032;-84
2022/05/21 01:40:19;;;;;;;6.20;4.70;;;;;;;13.30;100.00;93633.34;2089258;28;20016;-83
2022/05/21 01:41:21;;;;;;;4.95;3.55;;;;;;;13.35;100.00;93635.56;2095890;28;20029;-83
2022/05/21 01:42:23;;;;;;;5.03;3.35;;;;;;;13.30;100.00;93641.41;2093371;28;20012;-83
2022/05/21 01:44:52;;;;;;;6.55;3.70;;;;;;;13.28;100.00;93643.75;2105759;28;20114;-83
2022/05/21 01:45:53;;;;;;;7.60;4.03;;;;;;;13.16;100.00;93644.41;2089990;28;20028;-83
2022/05/21 01:46:54;;;;;;;5.85;4.07;;;;;;;13.14;100.00;93642.13;2096210;28;20839;-83
2022/05/21 01:47:55;;;;;;;5.55;3.63;;;;;;;13.09;100.00;93645.31;2105774;28;20059;-83
2022/05/21 01:48:56;;;;;;;4.43;3.83;;;;;;;13.05;100.00;93640.03;2105698;28;20024;-83
2022/05/21 01:49:57;;;;;;;4.50;3.13;;;;;;;13.04;100.00;93643.91;2105529;28;20118;-83
2022/05/21 01:50:58;;;;;;;4.65;3.72;;;;;;;13.08;100.00;93639.22;2097011;28;20504;-83
2022/05/21 01:52:01;;;;;;;3.67;3.30;;;;;;;12.99;100.00;93647.06;2100842;28;20070;-83
2022/05/21 01:53:03;;;;;;;5.70;3.70;;;;;;;13.01;100.00;93617.91;2110002;28;20071;-82
2022/05/21 01:54:04;;;;;;;5.28;3.67;;;;;;;13.03;100.00;93622.84;2097135;28;20103;-83
2022/05/21 01:55:05;;;;;;;4.05;3.65;;;;;;;12.98;100.00;93623.34;2097358;28;20362;-83
2022/05/21 01:56:08;;;;;;;6.63;4.05;;;;;;;12.87;100.00;93618.22;2089116;28;20032;-83
2022/05/21 01:57:09;;;;;;;4.18;3.38;;;;;;;12.91;100.00;93618.91;2094385;28;20061;-83
2022/05/21 01:58:12;;;;;;;4.15;3.65;;;;;;;12.86;100.00;93619.38;2094264;28;20536;-83
2022/05/21 01:59:13;;;;;;;5.55;3.25;;;;;;;12.85;100.00;93626.66;2097448;28;20043;-83
2022/05/21 02:00:15;;;;;;;4.05;3.60;;;;;;;12.68;100.00;93627.06;2101460;28;20019;-83
2022/05/21 02:01:16;;;;;;;11.25;3.75;;;;;;;12.63;100.00;93630.22;2094726;28;20103;-83
2022/05/21 02:02:17;;;;;;;4.20;3.70;;;;;;;12.50;100.00;93630.88;2089174;28;20021;-83
2022/05/21 02:03:18;;;;;;;5.43;3.40;;;;;;;12.52;100.00;93636.59;2089155;28;20506;-83
2022/05/21 02:04:19;;;;;;;4.88;3.30;;;;;;;12.48;100.00;93629.78;2105418;28;20024;-83
2022/05/21 02:05:22;;;;;;;4.32;3.40;;;;;;;12.44;100.00;93629.84;2105955;28;20016;-83
2022/05/21 02:06:23;;;;;;;5.00;3.35;;;;;;;12.47;100.00;93639.75;2102815;28;20027;-83
2022/05/21 02:07:24;;;;;;;3.60;3.30;;;;;;;12.45;100.00;93635.97;2097413;28;20930;-84
2022/05/21 02:08:25;;;;;;;3.95;3.55;;;;;;;12.46;100.00;93637.47;2097425;28;20052;-84
2022/05/21 02:09:26;;;;;;;5.18;3.70;;;;;;;12.49;100.00;93631.28;2080583;28;20045;-83
2022/05/21 02:10:30;;;;;;;4.22;3.35;;;;;;;12.45;100.00;93641.34;2088215;28;20397;-84
2022/05/21 02:13:26;;;;;;;5.28;3.35;;;;;;;12.35;100.00;93643.06;2139653;27;20169;-84
2022/05/21 02:14:29;;;;;;;4.88;3.50;;;;;;;12.44;100.00;93645.19;2121878;28;20061;-85
2022/05/21 02:15:31;;;;;;;3.60;3.28;;;;;;;12.29;100.00;93645.47;2105478;28;20020;-85
2022/05/21 02:16:36;;;;;;;11.68;3.30;;;;;;;12.15;100.00;93643.06;2113426;28;20385;-87
2022/05/21 02:17:37;;;;;;;5.68;3.65;;;;;;;12.13;100.00;93640.03;2114202;28;20098;-86
2022/05/21 02:18:39;;;;;;;5.60;3.67;;;;;;;12.51;100.00;93645.81;2105308;28;20154;-85
2022/05/21 02:19:40;;;;;;;7.03;3.55;;;;;;;12.33;100.00;93648.81;2105027;28;20027;-87
2022/05/21 02:20:42;;;;;;;9.07;3.65;;;;;;;12.43;100.00;93643.69;2097701;28;20028;-84
2022/05/21 02:21:44;;;;;;;7.47;4.63;;;;;;;12.26;100.00;93640.19;2105124;28;20028;-84
2022/05/21 02:22:46;;;;;;;7.40;4.15;;;;;;;12.22;100.00;93642.94;2113673;28;20026;-86
2022/05/21 02:23:47;;;;;;;5.65;3.58;;;;;;;12.25;100.00;93641.38;2105208;28;20409;-84
2022/05/21 02:24:49;;;;;;;4.40;3.55;;;;;;;12.15;100.00;93645.00;2113230;28;20027;-86
2022/05/21 02:25:52;;;;;;;5.85;3.75;;;;;;;12.12;100.00;93635.88;2106939;27;20530;-85
2022/05/21 02:26:54;;;;;;;4.38;3.53;;;;;;;12.01;100.00;93641.41;2113607;28;20065;-85
2022/05/21 02:27:55;;;;;;;8.35;3.95;;;;;;;12.01;100.00;93644.09;2105043;28;20078;-83
2022/05/21 02:28:56;;;;;;;4.70;3.45;;;;;;;12.02;100.00;93645.59;2113078;28;20513;-87
2022/05/21 02:29:57;;;;;;;6.50;3.80;;;;;;;12.02;100.00;93648.28;2099920;28;20020;-88
2022/05/21 02:30:59;;;;;;;4.13;3.72;;;;;;;12.01;100.00;93640.66;2105053;28;20024;-87
2022/05/21 02:32:00;;;;;;;5.47;3.40;;;;;;;11.90;100.00;93650.81;2113640;27;20012;-84
2022/05/21 02:33:02;;;;;;;7.40;3.63;;;;;;;11.94;100.00;93646.91;2113155;28;20070;-86
2022/05/21 02:34:03;;;;;;;3.80;3.40;;;;;;;11.92;100.00;93638.53;2113454;28;20023;-85
2022/05/21 02:35:07;;;;;;;3.80;3.45;;;;;;;11.85;100.00;93646.66;2113517;27;20074;-87
2022/05/21 02:36:09;;;;;;;8.45;3.50;;;;;;;11.96;100.00;93649.19;2113264;28;20064;-85
2022/05/21 02:39:51;;;;;;;9.43;3.40;;;;;;;11.71;100.00;93650.34;2130489;27;20031;-84
2022/05/21 02:40:53;;;;;;;6.15;3.08;;;;;;;11.67;100.00;93654.25;2121541;28;20050;-84
2022/05/21 02:41:54;;;;;;;13.77;3.10;;;;;;;11.74;100.00;93646.09;2104986;28;20054;-86
2022/05/21 02:42:56;;;;;;;4.57;3.88;;;;;;;11.70;100.00;93653.44;2105125;28;20473;-86
2022/05/21 02:43:57;;;;;;;7.40;3.08;;;;;;;11.69;100.00;93646.56;2113583;27;20031;-86
2022/05/21 02:44:58;;;;;;;17.88;3.20;;;;;;;11.69;100.00;93643.88;2121701;27;20115;-85
2022/05/21 02:45:59;;;;;;;6.60;3.13;;;;;;;11.68;100.00;93642.38;2121549;28;20015;-85
2022/05/21 02:47:01;;;;;;;8.10;3.45;;;;;;;11.75;100.00;93645.69;2112941;28;20457;-84
2022/05/21 02:48:02;;;;;;;3.85;3.30;;;;;;;11.75;100.00;93640.31;2113415;28;20015;-85
2022/05/21 02:49:03;;;;;;;7.20;3.22;;;;;;;11.85;100.00;93638.63;2113566;27;20055;-85
2022/05/21 02:50:06;;;;;;;4.75;3.13;;;;;;;11.87;100.00;93633.63;2117251;28;20484;-87
2022/05/21 02:51:09;;;;;;;5.60;3.05;;;;;;;11.99;100.00;93643.75;2105198;28;20028;-85
2022/05/21 02:52:10;;;;;;;10.52;3.30;;;;;;;12.06;100.00;93640.16;2105048;28;20073;-87
2022/05/21 02:53:17;;;;;;;5.88;2.88;;;;;;;12.27;100.00;93641.69;2109766;28;20093;-84
2022/05/21 02:54:18;;;;;;;10.75;3.25;;;;;;;12.13;100.00;93639.28;2121512;28;20015;-87
2022/05/21 02:55:26;;;;;;;4.20;3.00;;;;;;;12.05;100.00;93639.41;2113211;28;20499;-88
2022/05/21 02:56:27;;;;;;;11.20;3.22;;;;;;;12.01;100.00;93646.00;2106604;28;20012;-86
2022/05/21 02:57:30;;;;;;;7.80;3.05;;;;;;;12.03;100.00;93632.97;2113035;27;20032;-87
2022/05/21 02:58:31;;;;;;;3.92;2.78;;;;;;;12.11;100.00;93639.69;2113455;28;20024;-85
2022/05/21 02:59:33;;;;;;;5.03;3.00;;;;;;;12.04;100.00;93640.59;2104921;28;20481;-86
2022/05/21 03:00:35;;;;;;;11.63;3.90;;;;;;;12.05;100.00;93634.06;2105029;28;20025;-83
2022/05/21 03:01:37;;;;;;;7.00;3.30;;;;;;;11.91;100.00;93634.34;2113329;27;20030;-89
2022/05/21 03:02:39;;;;;;;5.10;3.20;;;;;;;11.93;100.00;93634.66;2113280;28;20558;-84
2022/05/21 03:03:42;;;;;;;3.83;3.22;;;;;;;11.90;100.00;93637.44;2113341;28;20031;-85
2022/05/21 03:04:45;;;;;;;6.80;3.35;;;;;;;11.89;100.00;93641.25;2105035;28;20028;-88
2022/05/21 03:05:47;;;;;;;4.15;3.13;;;;;;;11.84;100.00;93643.25;2104902;28;20028;-86
2022/05/21 03:06:49;;;;;;;4.82;2.92;;;;;;;11.86;100.00;93644.78;2107688;28;20028;-86
2022/05/21 03:07:52;;;;;;;8.02;3.40;;;;;;;11.83;100.00;93641.75;2096416;28;20123;-86
2022/05/21 03:10:21;;;;;;;7.40;3.30;;;;;;;11.66;100.00;93650.06;2118505;28;20053;-86
2022/05/21 03:11:22;;;;;;;3.30;3.00;;;;;;;11.80;100.00;93653.22;2112929;28;20660;-84
2022/05/21 03:12:23;;;;;;;6.13;3.10;;;;;;;11.62;100.00;93652.78;2104533;28;20025;-87
2022/05/21 03:13:25;;;;;;;11.23;3.30;;;;;;;11.64;100.00;93649.72;2111364;28;20550;-85
2022/05/21 03:14:26;;;;;;;13.27;4.00;;;;;;;11.57;100.00;93651.34;2095967;28;20027;-86
2022/05/21 03:15:33;;;;;;;4.85;3.28;;;;;;;11.52;100.00;93657.16;2089010;28;20032;-84
2022/05/21 03:16:35;;;;;;;11.82;3.75;;;;;;;11.50;100.00;93654.16;2097673;28;20024;-87
2022/05/21 03:17:36;;;;;;;5.90;3.35;;;;;;;11.51;100.00;93661.00;2096374;28;20456;-85
2022/05/21 03:18:39;;;;;;;3.15;2.90;;;;;;;11.62;100.00;93657.41;2104641;28;20238;-84
2022/05/21 03:19:41;;;;;;;7.95;3.30;;;;;;;11.54;100.00;93654.81;2096420;28;20123;-85
2022/05/21 03:20:42;;;;;;;6.03;3.50;;;;;;;11.47;100.00;93643.50;2096217;28;20108;-85
2022/05/21 03:21:43;;;;;;;9.40;3.53;;;;;;;11.37;100.00;93655.91;2096006;28;20106;-86
2022/05/21 03:22:44;;;;;;;6.00;3.38;;;;;;;11.38;100.00;93648.63;2104497;28;20111;-85
2022/05/21 03:23:47;;;;;;;6.47;3.58;;;;;;;11.46;100.00;93647.34;2112794;28;20031;-83
2022/05/21 03:24:49;;;;;;;4.70;3.53;;;;;;;11.47;100.00;93652.28;2106706;28;20535;-85
2022/05/21 03:25:50;;;;;;;7.35;3.45;;;;;;;11.56;100.00;93657.09;2098918;28;20034;-86
2022/05/21 03:26:52;;;;;;;5.43;3.92;;;;;;;11.52;100.00;93656.41;2098862;28;20499;-85
2022/05/21 03:27:54;;;;;;;7.00;3.60;;;;;;;11.52;100.00;93651.06;2090976;28;20036;-84
2022/05/21 03:28:55;;;;;;;3.72;3.42;;;;;;;11.43;100.00;93659.63;2090999;28;20117;-84
2022/05/21 03:29:56;;;;;;;4.80;3.25;;;;;;;11.36;100.00;93657.03;2098814;28;20065;-87
2022/05/21 03:30:57;;;;;;;3.58;3.28;;;;;;;11.56;100.00;93659.78;2098732;28;20016;-85
2022/05/21 03:31:58;;;;;;;4.90;3.53;;;;;;;11.43;100.00;93658.84;2098752;28;20054;-84
2022/05/21 03:33:00;;;;;;;4.40;3.60;;;;;;;11.39;100.00;93655.47;2107363;28;20054;-84
2022/05/21 03:34:01;;;;;;;6.72;3.50;;;;;;;11.46;100.00;93650.78;2098874;28;20558;-84
2022/05/21 03:35:03;;;;;;;5.00;3.50;;;;;;;11.58;100.00;93657.44;2090811;28;20163;-83
2022/05/21 03:36:08;;;;;;;3.90;3.50;;;;;;;11.57;100.00;93655.94;2090709;28;20050;-84
2022/05/21 03:37:09;;;;;;;5.13;3.58;;;;;;;11.49;100.00;93659.91;2091557;28;20497;-87
2022/05/21 03:38:12;;;;;;;5.40;3.55;;;;;;;11.37;100.00;93657.78;2107299;28;20020;-86
2022/05/21 03:39:13;;;;;;;8.50;3.72;;;;;;;11.35;100.00;93650.19;2106117;28;20111;-82
2022/05/21 03:40:21;;;;;;;6.00;4.47;;;;;;;11.35;100.00;93658.22;2098705;28;20024;-84
2022/05/21 03:41:22;;;;;;;5.18;3.92;;;;;;;11.27;100.00;93657.56;2099632;28;20020;-86
2022/05/21 03:42:24;;;;;;;10.15;3.95;;;;;;;11.48;100.00;93655.72;2107166;28;20020;-85
2022/05/21 03:43:25;;;;;;;4.97;3.92;;;;;;;11.31;100.00;93646.81;2107351;28;20464;-85
2022/05/21 03:44:27;;;;;;;7.25;3.78;;;;;;;11.42;100.00;93646.66;2106026;28;20385;-86
2022/05/21 03:45:28;;;;;;;4.38;3.63;;;;;;;11.54;100.00;93652.16;2098690;28;20071;-85
2022/05/21 03:46:29;;;;;;;11.75;4.30;;;;;;;11.39;100.00;93650.88;2090610;28;20396;-83
2022/05/21 03:47:30;;;;;;;9.98;4.00;;;;;;;11.23;100.00;93650.75;2090608;28;20115;-89
2022/05/21 03:48:32;;;;;;;6.53;3.60;;;;;;;11.13;100.00;93644.41;2098755;28;20021;-88
2022/05/21 03:49:33;;;;;;;4.15;3.38;;;;;;;11.33;100.00;93652.53;2115390;28;20110;-85
2022/05/21 03:50:34;;;;;;;5.93;3.85;;;;;;;11.34;100.00;93656.69;2106949;28;20103;-82
2022/05/21 03:51:37;;;;;;;4.63;3.63;;;;;;;11.43;100.00;93661.53;2098800;28;20028;-85
2022/05/21 03:52:39;;;;;;;10.07;4.55;;;;;;;11.25;100.00;93665.25;2107033;28;20019;-87
2022/05/21 03:53:41;;;;;;;4.32;3.92;;;;;;;11.17;100.00;93660.41;2090915;28;20115;-88
2022/05/21 03:54:42;;;;;;;6.03;4.72;;;;;;;11.21;100.00;93658.44;2090553;28;20031;-85
2022/05/21 03:55:44;;;;;;;4.43;3.78;;;;;;;11.46;100.00;93664.16;2090601;28;20024;-87
2022/05/21 03:56:45;;;;;;;6.20;3.50;;;;;;;11.22;100.00;93662.63;2099013;28;20025;-82
2022/05/21 03:57:46;;;;;;;5.13;3.83;;;;;;;11.30;100.00;93658.69;2107233;28;20043;-84
2022/05/21 03:58:48;;;;;;;8.18;4.20;;;;;;;11.50;100.00;93664.84;2098902;28;20628;-86
2022/05/21 03:59:49;;;;;;;5.78;3.85;;;;;;;11.34;100.00;93664.72;2090307;28;20095;-87
2022/05/21 04:00:50;;;;;;;4.93;4.43;;;;;;;11.18;100.00;93661.91;2098561;28;20202;-85
2022/05/21 04:01:51;;;;;;;4.65;3.88;;;;;;;11.14;100.00;93669.25;2092547;28;20377;-85
2022/05/21 04:02:52;;;;;;;4.43;4.03;;;;;;;11.13;100.00;93667.72;2090362;28;20048;-86
2022/05/21 04:03:54;;;;;;;4.43;3.63;;;;;;;11.25;100.00;93667.91;2095887;28;20020;-87
2022/05/21 04:04:56;;;;;;;7.00;4.28;;;;;;;11.21;100.00;93663.78;2098671;28;20028;-82
2022/05/21 04:05:58;;;;;;;5.97;4.40;;;;;;;11.42;100.00;93668.81;2098535;28;20028;-86
2022/05/21 04:06:59;;;;;;;21.55;4.47;;;;;;;11.27;100.00;93667.50;2106839;28;20035;-84
2022/05/21 04:08:05;;;;;;;7.22;4.40;;;;;;;11.20;100.00;93665.72;2090446;28;20017;-82
2022/05/21 04:09:07;;;;;;;4.40;3.97;;;;;;;11.12;100.00;93668.91;2091749;28;20517;-87
2022/05/21 04:10:10;;;;;;;4.72;4.00;;;;;;;11.12;100.00;93666.22;2090465;28;20032;-84
2022/05/21 04:11:11;;;;;;;5.93;4.00;;;;;;;11.24;100.00;93668.34;2098323;28;20393;-84
2022/05/21 04:12:12;;;;;;;9.00;4.63;;;;;;;11.30;100.00;93674.72;2090221;28;20029;-83
2022/05/21 04:13:13;;;;;;;4.75;4.18;;;;;;;11.33;100.00;93673.94;2081818;28;20044;-85
2022/05/21 04:14:14;;;;;;;5.35;3.40;;;;;;;11.23;100.00;93667.56;2082384;28;20120;-85
2022/05/21 04:15:15;;;;;;;8.00;3.90;;;;;;;11.20;100.00;93668.38;2090418;28;20119;-86
2022/05/21 04:16:17;;;;;;;5.10;3.90;;;;;;;11.38;100.00;93668.09;2098346;28;20667;-86
2022/05/21 04:17:18;;;;;;;4.78;4.10;;;;;;;11.12;100.00;93666.22;2090476;28;20041;-85
2022/05/21 04:18:19;;;;;;;5.78;4.25;;;;;;;11.17;100.00;93665.75;2090430;28;20021;-87
2022/05/21 04:19:21;;;;;;;4.97;3.97;;;;;;;11.19;100.00;93672.22;2104982;28;20028;-87
2022/05/21 04:20:23;;;;;;;4.68;4.28;;;;;;;11.10;100.00;93675.38;2098644;28;20123;-87
2022/05/21 04:21:26;;;;;;;5.05;4.30;;;;;;;11.12;100.00;93668.91;2090382;28;20021;-86
2022/05/21 04:22:27;;;;;;;4.70;4.30;;;;;;;11.07;100.00;93670.88;2090865;28;20116;-83
2022/05/21 04:23:28;;;;;;;7.25;4.00;;;;;;;10.97;100.00;93665.66;2105889;28;20389;-87
2022/05/21 04:24:29;;;;;;;6.50;4.68;;;;;;;10.97;100.00;93668.34;2106765;28;20020;-84
2022/05/21 04:25:31;;;;;;;9.48;4.50;;;;;;;11.14;100.00;93674.59;2098305;28;20020;-86
2022/05/21 04:26:32;;;;;;;7.72;4.13;;;;;;;11.08;100.00;93668.94;2090317;28;20027;-84
2022/05/21 04:27:36;;;;;;;8.95;4.57;;;;;;;11.05;100.00;93670.50;2098358;28;20782;-84
2022/05/21 04:28:39;;;;;;;6.97;4.93;;;;;;;11.10;100.00;93670.03;2095719;28;20117;-84
2022/05/21 04:29:39;;;;;;;5.00;4.50;;;;;;;10.99;100.00;93666.03;2090707;28;20446;-86
2022/05/21 04:30:41;;;;;;;6.55;4.70;;;;;;;10.91;100.00;93667.28;2090509;28;20020;-85
2022/05/21 04:31:45;;;;;;;5.43;4.80;;;;;;;11.17;100.00;93668.44;2099077;28;20374;-86
2022/05/21 04:32:47;;;;;;;5.28;4.00;;;;;;;11.20;100.00;93668.38;2099302;28;20101;-86
2022/05/21 04:33:49;;;;;;;8.20;5.05;;;;;;;11.06;100.00;93669.38;2099248;28;20029;-84
2022/05/21 04:34:51;;;;;;;4.78;4.30;;;;;;;11.06;100.00;93663.22;2098690;28;20082;-88
2022/05/21 04:37:12;;;;;;;5.28;4.13;;;;;;;11.01;100.00;93661.75;2095294;28;20021;-86
2022/05/21 04:38:14;;;;;;;4.63;4.07;;;;;;;10.95;100.00;93663.41;2111949;28;20108;-87
2022/05/21 04:39:15;;;;;;;5.10;4.65;;;;;;;11.02;100.00;93665.22;2097481;28;20043;-85
2022/05/21 04:40:20;;;;;;;8.15;3.63;;;;;;;11.16;100.00;93670.34;2090159;28;20025;-85
2022/05/21 04:41:22;;;;;;;5.78;4.20;;;;;;;11.24;100.00;93671.00;2097370;28;20024;-84
2022/05/21 04:42:23;;;;;;;5.45;4.15;;;;;;;11.14;100.00;93669.25;2106422;28;20670;-86
2022/05/21 04:43:24;;;;;;;4.93;3.90;;;;;;;11.06;100.00;93666.69;2098350;28;20417;-85
2022/05/21 04:44:30;;;;;;;5.07;4.57;;;;;;;11.17;100.00;93671.13;2098226;28;20039;-85
2022/05/21 04:45:32;;;;;;;4.47;3.95;;;;;;;11.07;100.00;93667.44;2090812;28;20092;-86
2022/05/21 04:46:35;;;;;;;8.10;4.32;;;;;;;11.09;100.00;93673.88;2090158;28;20026;-86
2022/05/21 04:47:36;;;;;;;5.18;4.40;;;;;;;11.19;100.00;93676.81;2098610;28;20044;-84
2022/05/21 04:48:38;;;;;;;6.22;4.05;;;;;;;10.92;100.00;93666.88;2098717;28;20520;-86
2022/05/21 04:49:49;;;;;;;4.80;4.28;;;;;;;10.90;100.00;93674.56;2106471;28;20053;-84
2022/05/21 04:50:50;;;;;;;8.35;4.07;;;;;;;10.91;100.00;93676.06;2099513;28;20099;-85
2022/05/21 04:51:51;;;;;;;6.88;4.13;;;;;;;11.08;100.00;93658.25;2090162;28;20044;-87
2022/05/21 04:52:52;;;;;;;9.07;4.45;;;;;;;11.24;100.00;93671.00;2098306;28;20493;-86
2022/05/21 04:53:54;;;;;;;7.10;4.00;;;;;;;11.03;100.00;93667.50;2104855;28;20055;-83
2022/05/21 04:54:55;;;;;;;7.07;4.50;;;;;;;11.13;100.00;93670.41;2096500;28;20036;-86
2022/05/21 04:55:57;;;;;;;4.20;3.80;;;;;;;11.08;100.00;93667.03;2097048;28;20055;-85
2022/05/21 04:56:58;;;;;;;5.35;3.88;;;;;;;11.02;100.00;93659.88;2097916;28;20020;-86
2022/05/21 04:58:00;;;;;;;4.75;4.25;;;;;;;10.99;100.00;93669.44;2089367;28;20021;-87
2022/05/21 04:59:02;;;;;;;6.18;4.15;;;;;;;10.98;100.00;93664.50;2088549;28;20104;-86
2022/05/21 05:00:05;;;;;;;5.00;3.88;;;;;;;11.13;100.00;93662.38;2097387;28;20039;-86